Terminal Aerodrome Forecast
Issued by NWS Portland, ME

Home | Current Version | Previous Version | Text Only | Print | Product List | Glossary On
Versions: 1 2 3 4 5 6 7 8 9 10 11 12 13 14 15 16 17 18 19
280
FTUS41 KGYX 041724
TAFPWM
TAF
KPWM 041724Z 0418/0518 32012G18KT P6SM SKC
     FM042200 33005KT P6SM SKC
     FM051100 36003KT P6SM OVC100
     FM051500 32003KT 1 1/2SM -SN BR OVC015=

USA.gov is the U.S. government's official web portal to all federal, state and local government web resources and services.